createdAt,value
2018-07-20T00:01:45.775Z,21.84
2018-07-20T00:04:14.299Z,21.81
2018-07-20T00:06:43.229Z,21.80
2018-07-20T00:09:12.182Z,21.81
2018-07-20T00:11:40.763Z,21.75
2018-07-20T00:14:09.298Z,21.74
2018-07-20T00:16:38.013Z,21.67
2018-07-20T00:19:06.588Z,21.60
2018-07-20T00:21:35.135Z,21.58
2018-07-20T00:24:03.736Z,21.55
2018-07-20T00:26:32.409Z,21.47
2018-07-20T00:29:01.461Z,21.47
2018-07-20T00:31:30.625Z,21.33
2018-07-20T00:33:59.214Z,21.32
2018-07-20T00:36:28.339Z,21.26
2018-07-20T00:38:57.589Z,21.11
2018-07-20T00:41:26.137Z,21.09
2018-07-20T00:43:54.672Z,21.07
2018-07-20T00:46:23.423Z,21.06
2018-07-20T00:48:51.951Z,21.14
2018-07-20T00:51:20.512Z,21.09
2018-07-20T00:53:49.508Z,21.07
2018-07-20T00:56:18.291Z,20.91
2018-07-20T00:58:46.838Z,20.95
2018-07-20T01:01:16.247Z,20.91
2018-07-20T01:03:44.777Z,20.84
2018-07-20T01:06:13.576Z,20.86
2018-07-20T01:08:42.335Z,20.87
2018-07-20T01:11:10.991Z,20.83
2018-07-20T01:13:39.701Z,20.86
2018-07-20T01:16:08.658Z,20.72
2018-07-20T01:18:37.247Z,20.66
2018-07-20T01:21:06.106Z,20.67
2018-07-20T01:23:35.108Z,20.68
2018-07-20T01:26:03.664Z,20.74
2018-07-20T01:28:32.229Z,20.62
2018-07-20T01:31:00.799Z,20.65
2018-07-20T01:33:29.369Z,20.56
2018-07-20T01:35:58.259Z,20.58
2018-07-20T01:38:26.941Z,20.37
2018-07-20T01:40:55.496Z,20.50
2018-07-20T01:43:24.041Z,20.47
2018-07-20T01:45:52.903Z,20.41
2018-07-20T01:48:21.479Z,20.41
2018-07-20T01:50:50.008Z,20.29
2018-07-20T01:53:18.870Z,20.30
2018-07-20T01:55:47.416Z,20.17
2018-07-20T01:58:15.940Z,20.09
2018-07-20T02:00:44.657Z,20.02
2018-07-20T02:03:13.180Z,20.02
2018-07-20T02:05:41.711Z,20.00
2018-07-20T02:08:10.495Z,20.08
2018-07-20T02:10:39.051Z,20.00
2018-07-20T02:13:07.681Z,19.90
2018-07-20T02:15:36.531Z,19.69
2018-07-20T02:18:05.195Z,19.71
2018-07-20T02:20:33.752Z,19.76
2018-07-20T02:23:02.651Z,19.74
2018-07-20T02:25:31.315Z,19.70
2018-07-20T02:27:59.882Z,19.61
2018-07-20T02:30:28.520Z,19.71
2018-07-20T02:32:57.071Z,19.54
2018-07-20T02:35:25.616Z,19.55
2018-07-20T02:37:54.517Z,19.60
2018-07-20T02:40:23.229Z,19.64
2018-07-20T02:42:51.749Z,19.56
2018-07-20T02:45:20.420Z,19.61
2018-07-20T02:47:48.963Z,19.60
2018-07-20T02:50:17.656Z,19.70
2018-07-20T02:52:46.573Z,19.70
2018-07-20T02:55:15.116Z,19.52
2018-07-20T02:57:43.856Z,19.56
2018-07-20T03:00:12.485Z,19.47
2018-07-20T03:02:41.052Z,19.14
2018-07-20T03:05:09.595Z,19.27
2018-07-20T03:07:38.165Z,19.26
2018-07-20T03:10:06.723Z,19.12
2018-07-20T03:12:35.271Z,19.16
2018-07-20T03:15:04.985Z,19.06
2018-07-20T03:17:33.539Z,19.00
2018-07-20T03:20:02.179Z,19.01
2018-07-20T03:22:30.997Z,19.06
2018-07-20T03:24:59.552Z,19.12
2018-07-20T03:27:28.155Z,19.08
2018-07-20T03:29:56.849Z,19.06
2018-07-20T03:32:25.372Z,18.99
2018-07-20T03:34:54.357Z,18.94
2018-07-20T03:37:23.459Z,18.97
2018-07-20T03:39:52.447Z,18.86
2018-07-20T03:42:21.044Z,18.87
2018-07-20T03:44:49.617Z,18.85
2018-07-20T03:47:18.176Z,18.72
2018-07-20T03:49:46.743Z,18.70
2018-07-20T03:52:15.384Z,18.75
2018-07-20T03:54:43.891Z,18.68
2018-07-20T03:57:12.644Z,18.74
2018-07-20T03:59:41.687Z,18.72
2018-07-20T04:02:10.300Z,18.74
2018-07-20T04:04:38.863Z,18.75
2018-07-20T04:07:07.720Z,18.70
2018-07-20T04:09:36.239Z,18.81
2018-07-20T04:12:06.513Z,18.91
2018-07-20T04:14:35.303Z,18.94
2018-07-20T04:17:03.939Z,18.95
2018-07-20T04:19:32.449Z,18.95
2018-07-20T04:22:01.023Z,19.01
2018-07-20T04:24:29.583Z,19.08
2018-07-20T04:26:58.113Z,19.13
2018-07-20T04:29:26.795Z,19.31
2018-07-20T04:31:55.336Z,19.28
2018-07-20T04:34:24.752Z,19.33
2018-07-20T04:36:53.656Z,19.45
2018-07-20T04:39:22.184Z,19.55
2018-07-20T04:41:51.031Z,19.46
2018-07-20T04:44:19.773Z,19.47
2018-07-20T04:46:48.564Z,19.35
2018-07-20T04:49:17.199Z,19.39
2018-07-20T04:51:46.036Z,19.38
2018-07-20T04:54:14.576Z,19.36
2018-07-20T04:56:43.411Z,19.34
2018-07-20T04:59:12.065Z,19.29
2018-07-20T05:04:19.834Z,19.31
2018-07-20T05:06:48.588Z,19.42
2018-07-20T05:09:17.107Z,19.55
2018-07-20T05:11:45.683Z,19.52
2018-07-20T05:14:14.242Z,19.41
2018-07-20T05:16:42.756Z,19.37
2018-07-20T05:19:11.774Z,19.49
2018-07-20T05:21:40.332Z,19.44
2018-07-20T05:24:08.915Z,19.59
2018-07-20T05:26:37.795Z,19.71
2018-07-20T05:29:06.603Z,19.84
2018-07-20T05:31:35.134Z,19.95
2018-07-20T05:34:03.708Z,20.01
2018-07-20T05:36:32.232Z,20.26
2018-07-20T05:39:00.787Z,20.36
2018-07-20T05:41:29.351Z,20.58
2018-07-20T05:43:58.247Z,20.67
2018-07-20T05:46:26.784Z,20.79
2018-07-20T05:48:55.680Z,20.89
2018-07-20T05:51:24.203Z,21.24
2018-07-20T05:53:52.741Z,21.53
2018-07-20T05:56:21.459Z,21.88
2018-07-20T05:58:49.988Z,22.24
2018-07-20T06:01:18.535Z,22.52
2018-07-20T06:03:47.235Z,22.72
2018-07-20T06:06:16.080Z,22.81
2018-07-20T06:08:44.607Z,22.76
2018-07-20T06:11:13.306Z,22.84
2018-07-20T06:13:41.860Z,23.04
2018-07-20T06:16:10.387Z,23.04
2018-07-20T06:18:38.935Z,23.38
2018-07-20T06:21:07.916Z,23.52
2018-07-20T06:23:36.736Z,23.64
2018-07-20T06:26:05.376Z,23.85
2018-07-20T06:28:33.906Z,23.97
2018-07-20T06:31:02.415Z,24.08
2018-07-20T06:33:30.984Z,24.10
2018-07-20T06:35:59.527Z,24.23
2018-07-20T06:38:28.067Z,24.25
2018-07-20T06:40:56.719Z,24.42
2018-07-20T06:43:25.248Z,24.43
2018-07-20T06:45:53.781Z,24.51
2018-07-20T06:48:22.330Z,24.62
2018-07-20T06:50:50.845Z,24.67
2018-07-20T06:53:19.743Z,24.16
2018-07-20T06:55:48.351Z,24.02
2018-07-20T06:58:16.857Z,24.36
2018-07-20T07:00:45.391Z,24.51
2018-07-20T07:03:14.343Z,24.63
2018-07-20T07:05:42.863Z,24.86
2018-07-20T07:08:11.384Z,25.38
2018-07-20T07:10:39.950Z,25.97
2018-07-20T07:13:08.483Z,26.66
2018-07-20T07:15:37.039Z,26.73
2018-07-20T07:18:05.996Z,27.12
2018-07-20T07:20:34.507Z,27.28
2018-07-20T07:23:03.033Z,27.60
2018-07-20T07:25:31.576Z,27.71
2018-07-20T07:28:02.112Z,27.91
2018-07-20T07:30:30.679Z,27.74
2018-07-20T07:32:59.223Z,28.33
2018-07-20T07:35:27.823Z,28.35
2018-07-20T07:37:56.355Z,28.85
2018-07-20T07:40:24.863Z,29.48
2018-07-20T07:42:53.513Z,30.06
2018-07-20T07:45:22.161Z,30.45
2018-07-20T07:47:50.675Z,30.83
2018-07-20T07:50:19.191Z,31.35
2018-07-20T07:52:48.082Z,31.56
2018-07-20T07:55:16.615Z,31.55
2018-07-20T07:57:45.146Z,31.26
2018-07-20T08:00:13.723Z,31.03
2018-07-20T08:02:42.251Z,30.15
2018-07-20T08:05:10.772Z,30.47
2018-07-20T08:07:39.381Z,30.67
2018-07-20T08:10:08.058Z,31.28
2018-07-20T08:12:36.447Z,30.37
2018-07-20T08:15:05.748Z,29.83
2018-07-20T08:17:34.272Z,30.91
2018-07-20T08:20:02.864Z,31.46
2018-07-20T08:22:31.588Z,31.63
2018-07-20T08:25:00.380Z,31.81
2018-07-20T08:27:28.914Z,31.60
2018-07-20T08:29:57.484Z,32.66
2018-07-20T08:32:26.011Z,33.00
2018-07-20T08:34:54.531Z,33.01
2018-07-20T08:37:23.510Z,33.15
2018-07-20T08:39:52.063Z,33.86
2018-07-20T08:42:20.591Z,33.83
2018-07-20T08:44:49.200Z,33.26
2018-07-20T08:47:17.802Z,33.87
2018-07-20T08:49:48.645Z,33.79
2018-07-20T08:52:17.447Z,33.33
2018-07-20T08:54:46.063Z,34.12
2018-07-20T08:57:14.875Z,34.67
2018-07-20T08:59:43.487Z,35.44
2018-07-20T09:02:12.206Z,36.30
2018-07-20T09:04:40.842Z,36.80
2018-07-20T09:07:09.507Z,36.35
2018-07-20T09:09:38.113Z,36.54
2018-07-20T09:12:06.625Z,36.22
2018-07-20T09:14:35.611Z,35.98
2018-07-20T09:17:04.150Z,36.76
2018-07-20T09:19:32.680Z,36.43
2018-07-20T09:22:01.302Z,37.22
2018-07-20T09:24:29.822Z,36.86
2018-07-20T09:26:58.447Z,37.34
2018-07-20T09:29:27.383Z,36.28
2018-07-20T09:31:55.995Z,37.57
2018-07-20T09:34:24.929Z,38.42
2018-07-20T09:36:53.625Z,39.50
2018-07-20T09:39:22.142Z,38.58
2018-07-20T09:41:50.659Z,39.35
2018-07-20T09:44:19.215Z,39.90
2018-07-20T09:46:48.656Z,41.06
2018-07-20T09:49:17.179Z,40.95
2018-07-20T09:51:45.728Z,42.60
2018-07-20T09:54:14.288Z,42.73
2018-07-20T09:56:42.842Z,43.58
2018-07-20T09:59:11.390Z,43.12
2018-07-20T10:01:39.918Z,42.63
2018-07-20T10:04:08.475Z,43.44
2018-07-20T10:06:37.455Z,42.77
2018-07-20T10:09:09.546Z,44.46
2018-07-20T10:11:38.653Z,44.93
2018-07-20T10:14:07.492Z,44.99
2018-07-20T10:16:36.292Z,45.70
2018-07-20T10:19:05.059Z,45.87
2018-07-20T10:21:33.568Z,45.01
2018-07-20T10:24:02.297Z,43.95
2018-07-20T10:26:31.081Z,45.02
2018-07-20T10:29:00.131Z,44.56
2018-07-20T10:31:28.708Z,45.12
2018-07-20T10:33:57.600Z,45.27
2018-07-20T10:36:26.371Z,44.65
2018-07-20T10:38:54.904Z,44.76
2018-07-20T10:41:23.534Z,45.98
2018-07-20T10:43:52.071Z,45.27
2018-07-20T10:46:20.611Z,46.45
2018-07-20T10:48:49.675Z,46.16
2018-07-20T10:51:18.352Z,46.36
2018-07-20T10:53:46.846Z,46.83
2018-07-20T10:56:15.443Z,47.26
2018-07-20T10:58:43.979Z,47.21
2018-07-20T11:01:12.483Z,47.78
2018-07-20T11:03:41.184Z,47.73
2018-07-20T11:06:09.703Z,46.75
2018-07-20T11:08:38.351Z,46.58
2018-07-20T11:11:07.996Z,46.65
2018-07-20T11:13:36.565Z,45.96
2018-07-20T11:16:05.347Z,46.61
2018-07-20T11:18:33.922Z,47.27
2018-07-20T11:21:02.672Z,47.64
2018-07-20T11:23:31.327Z,49.52
2018-07-20T11:26:00.167Z,48.36
2018-07-20T11:28:28.865Z,47.83
2018-07-20T11:30:57.459Z,46.12
2018-07-20T11:33:26.120Z,46.19
2018-07-20T11:35:54.676Z,46.85
2018-07-20T11:38:23.941Z,47.52
2018-07-20T11:40:53.655Z,48.05
2018-07-20T11:43:22.257Z,48.24
2018-07-20T11:45:51.378Z,48.05
2018-07-20T11:48:20.662Z,49.23
2018-07-20T11:50:49.359Z,48.54
2018-07-20T11:53:17.941Z,47.91
2018-07-20T11:55:46.814Z,47.72
2018-07-20T11:58:15.358Z,49.65
2018-07-20T12:00:43.895Z,48.94
2018-07-20T12:03:12.430Z,48.97
2018-07-20T12:05:41.183Z,48.32
2018-07-20T12:08:09.711Z,48.96
2018-07-20T12:10:38.535Z,47.61
2018-07-20T12:13:07.251Z,47.60
2018-07-20T12:15:36.514Z,48.49
2018-07-20T12:18:06.198Z,48.49
2018-07-20T12:20:35.168Z,49.01
2018-07-20T12:23:04.458Z,48.81
2018-07-20T12:25:33.925Z,50.26
2018-07-20T12:28:03.627Z,49.67
2018-07-20T12:30:32.384Z,49.26
2018-07-20T12:33:01.262Z,49.06
2018-07-20T12:35:29.915Z,49.18
2018-07-20T12:37:59.196Z,49.10
2018-07-20T12:40:28.365Z,47.98
2018-07-20T12:42:56.919Z,48.98
2018-07-20T12:45:25.479Z,48.45
2018-07-20T12:47:54.686Z,48.77
2018-07-20T12:50:23.911Z,49.08
2018-07-20T12:52:52.520Z,49.58
2018-07-20T12:55:21.196Z,47.89
2018-07-20T12:57:50.227Z,47.71
2018-07-20T13:00:18.811Z,44.80
2018-07-20T13:02:47.355Z,43.26
2018-07-20T13:05:15.867Z,41.57
2018-07-20T13:07:44.420Z,42.90
2018-07-20T13:10:12.997Z,41.78
2018-07-20T13:12:41.544Z,42.52
2018-07-20T13:15:10.232Z,43.63
2018-07-20T13:17:38.850Z,42.39
2018-07-20T13:20:07.845Z,42.08
2018-07-20T13:22:37.138Z,40.87
2018-07-20T13:25:06.088Z,40.92
2018-07-20T13:27:34.788Z,41.58
2018-07-20T13:30:03.763Z,41.36
2018-07-20T13:32:33.232Z,40.69
2018-07-20T13:35:02.038Z,39.53
2018-07-20T13:37:30.569Z,39.05
2018-07-20T13:39:59.215Z,39.39
2018-07-20T13:45:18.477Z,41.85
2018-07-20T13:47:47.023Z,43.36
2018-07-20T13:50:15.570Z,44.68
2018-07-20T13:52:44.437Z,44.56
2018-07-20T13:55:12.987Z,44.53
2018-07-20T13:57:41.932Z,43.08
2018-07-20T14:00:10.836Z,40.96
2018-07-20T14:02:39.368Z,39.53
2018-07-20T14:05:07.971Z,38.33
2018-07-20T14:07:36.732Z,37.36
2018-07-20T14:10:05.755Z,36.41
2018-07-20T14:12:34.327Z,35.97
2018-07-20T14:15:02.966Z,35.49
2018-07-20T14:17:31.591Z,35.59
2018-07-20T14:20:00.239Z,35.08
2018-07-20T14:22:29.151Z,35.51
2018-07-20T14:24:57.778Z,35.94
2018-07-20T14:27:26.345Z,35.98
2018-07-20T14:29:55.059Z,36.00
2018-07-20T14:32:23.635Z,36.52
2018-07-20T14:34:52.321Z,36.93
2018-07-20T14:37:20.936Z,37.93
2018-07-20T14:39:49.577Z,38.47
2018-07-20T14:42:18.268Z,38.90
2018-07-20T14:44:47.340Z,38.64
2018-07-20T14:47:15.856Z,38.62
2018-07-20T14:49:44.396Z,38.34
2018-07-20T14:52:12.968Z,37.52
2018-07-20T14:54:41.535Z,37.05
2018-07-20T14:57:10.077Z,36.74
2018-07-20T14:59:38.772Z,36.56
2018-07-20T15:02:07.324Z,36.50
2018-07-20T15:04:35.851Z,36.30
2018-07-20T15:07:04.485Z,35.99
2018-07-20T15:09:33.011Z,35.48
2018-07-20T15:12:01.580Z,35.49
2018-07-20T15:14:30.211Z,35.48
2018-07-20T15:16:58.780Z,34.96
2018-07-20T15:19:27.687Z,34.58
2018-07-20T15:21:56.424Z,34.27
2018-07-20T15:24:24.941Z,34.19
2018-07-20T15:26:53.471Z,33.84
2018-07-20T15:29:22.103Z,33.47
2018-07-20T15:31:50.645Z,33.46
2018-07-20T15:34:19.240Z,33.31
2018-07-20T15:36:48.176Z,33.15
2018-07-20T15:39:16.736Z,32.94
2018-07-20T15:41:46.032Z,32.71
2018-07-20T15:44:15.162Z,32.49
2018-07-20T15:46:44.005Z,32.04
2018-07-20T15:49:13.121Z,31.52
2018-07-20T15:53:35.343Z,31.52
2018-07-20T15:54:10.490Z,31.34
2018-07-20T15:56:39.319Z,31.14
2018-07-20T15:59:08.276Z,31.47
2018-07-20T16:01:37.099Z,31.73
2018-07-20T16:04:05.812Z,31.41
2018-07-20T16:06:34.579Z,31.92
2018-07-20T16:09:04.047Z,31.94
2018-07-20T16:11:32.655Z,31.68
2018-07-20T16:14:01.273Z,32.20
2018-07-20T16:16:29.983Z,32.32
2018-07-20T16:18:58.529Z,32.63
2018-07-20T16:21:27.344Z,32.95
2018-07-20T16:23:55.988Z,33.18
2018-07-20T16:26:24.677Z,33.03
2018-07-20T16:28:53.729Z,33.17
2018-07-20T16:31:22.419Z,32.89
2018-07-20T16:33:50.967Z,32.55
2018-07-20T16:36:19.782Z,32.49
2018-07-20T16:38:48.311Z,32.11
2018-07-20T16:41:16.914Z,32.21
2018-07-20T16:43:45.786Z,32.06
2018-07-20T16:46:15.264Z,31.76
2018-07-20T16:48:43.806Z,31.74
2018-07-20T16:51:12.570Z,31.61
2018-07-20T16:53:41.100Z,31.60
2018-07-20T16:56:09.635Z,31.04
2018-07-20T16:58:38.472Z,30.35
2018-07-20T17:01:07.092Z,29.66
2018-07-20T17:03:36.132Z,29.37
2018-07-20T17:06:05.147Z,28.74
2018-07-20T17:08:33.770Z,28.29
2018-07-20T17:11:02.368Z,27.67
2018-07-20T17:13:31.008Z,27.42
2018-07-20T17:15:59.555Z,27.33
2018-07-20T17:18:28.151Z,27.49
2018-07-20T17:20:56.792Z,27.08
2018-07-20T17:23:25.399Z,26.71
2018-07-20T17:25:53.931Z,26.68
2018-07-20T17:28:22.633Z,26.41
2018-07-20T17:30:51.158Z,26.24
2018-07-20T17:33:19.741Z,26.32
2018-07-20T17:35:48.455Z,26.30
2018-07-20T17:38:17.510Z,25.74
2018-07-20T17:40:46.329Z,25.96
2018-07-20T17:43:15.098Z,25.79
2018-07-20T17:45:43.671Z,25.67
2018-07-20T17:48:12.199Z,26.03
2018-07-20T17:50:41.092Z,25.80
2018-07-20T17:53:09.626Z,25.99
2018-07-20T17:55:38.218Z,25.75
2018-07-20T17:58:07.283Z,25.55
2018-07-20T18:00:36.316Z,25.53
2018-07-20T18:03:04.883Z,25.44
2018-07-20T18:05:33.860Z,25.39
2018-07-20T18:08:02.830Z,25.23
2018-07-20T18:10:31.472Z,25.35
2018-07-20T18:13:00.119Z,25.21
2018-07-20T18:15:28.675Z,25.20
2018-07-20T18:17:57.303Z,25.17
2018-07-20T18:20:25.897Z,25.00
2018-07-20T18:22:54.423Z,25.15
2018-07-20T18:25:22.987Z,24.94
2018-07-20T18:27:51.591Z,24.90
2018-07-20T18:30:20.168Z,24.73
2018-07-20T18:32:48.764Z,24.83
2018-07-20T18:35:17.836Z,24.79
2018-07-20T18:37:46.355Z,24.55
2018-07-20T18:40:14.887Z,24.53
2018-07-20T18:42:43.951Z,24.49
2018-07-20T18:45:12.475Z,24.39
2018-07-20T18:47:41.016Z,24.36
2018-07-20T18:50:10.535Z,24.39
2018-07-20T18:52:39.189Z,24.24
2018-07-20T18:55:08.067Z,24.31
2018-07-20T18:57:36.721Z,24.41
2018-07-20T19:00:05.780Z,24.16
2018-07-20T19:02:34.329Z,24.13
2018-07-20T19:05:03.488Z,24.09
2018-07-20T19:07:32.272Z,24.06
2018-07-20T19:10:01.073Z,24.00
2018-07-20T19:12:29.672Z,24.01
2018-07-20T19:14:58.328Z,23.80
2018-07-20T19:17:27.256Z,23.73
2018-07-20T19:19:56.314Z,23.94
2018-07-20T19:22:24.956Z,23.85
2018-07-20T19:24:53.481Z,23.89
2018-07-20T19:27:22.064Z,23.70
2018-07-20T19:29:50.608Z,23.65
2018-07-20T19:32:19.129Z,23.86
2018-07-20T19:34:47.708Z,23.54
2018-07-20T19:37:16.336Z,23.26
2018-07-20T19:39:45.024Z,23.24
2018-07-20T19:42:13.794Z,23.54
2018-07-20T19:44:42.457Z,23.31
2018-07-20T19:47:11.159Z,23.18
2018-07-20T19:49:39.878Z,23.11
2018-07-20T19:54:58.729Z,23.32
2018-07-20T19:57:27.522Z,23.24
2018-07-20T19:59:56.079Z,23.37
2018-07-20T20:02:24.847Z,23.64
2018-07-20T20:04:53.470Z,23.16
2018-07-20T20:07:22.350Z,23.28
2018-07-20T20:09:50.902Z,23.32
2018-07-20T20:12:19.551Z,23.35
2018-07-20T20:14:48.356Z,23.13
2018-07-20T20:17:17.304Z,23.16
2018-07-20T20:19:45.943Z,22.96
2018-07-20T20:22:14.908Z,22.86
2018-07-20T20:24:43.584Z,23.00
2018-07-20T20:27:12.522Z,22.89
2018-07-20T20:29:41.372Z,23.03
2018-07-20T20:32:10.399Z,23.12
2018-07-20T20:34:39.368Z,22.95
2018-07-20T20:37:08.182Z,23.03
2018-07-20T20:39:36.927Z,23.08
2018-07-20T20:42:06.202Z,22.90
2018-07-20T20:44:34.772Z,22.83
2018-07-20T20:47:03.400Z,22.94
2018-07-20T20:49:31.932Z,22.95
2018-07-20T20:52:00.484Z,22.98
2018-07-20T20:54:29.902Z,23.04
2018-07-20T20:56:59.040Z,23.05
2018-07-20T20:59:27.576Z,23.12
2018-07-20T21:01:56.174Z,23.17
2018-07-20T21:04:24.792Z,23.15
2018-07-20T21:06:53.493Z,23.04
2018-07-20T21:09:22.415Z,23.09
2018-07-20T21:11:51.095Z,23.08
2018-07-20T21:14:19.792Z,23.03
2018-07-20T21:16:48.512Z,22.92
2018-07-20T21:19:17.299Z,22.94
2018-07-20T21:21:46.187Z,22.95
2018-07-20T21:24:14.881Z,23.13
2018-07-20T21:26:43.532Z,23.11
2018-07-20T21:29:12.142Z,23.10
2018-07-20T21:31:41.358Z,23.07
2018-07-20T21:34:10.388Z,23.01
2018-07-20T21:36:39.553Z,22.72
2018-07-20T21:39:11.027Z,22.43
2018-07-20T21:41:39.807Z,22.49
2018-07-20T21:44:08.685Z,22.43
2018-07-20T21:46:37.329Z,22.60
2018-07-20T21:49:05.869Z,22.63
2018-07-20T21:51:34.505Z,22.82
2018-07-20T21:54:03.241Z,22.75
2018-07-20T21:56:31.779Z,22.81
2018-07-20T21:59:00.311Z,22.63
2018-07-20T22:01:29.410Z,22.79
2018-07-20T22:03:58.233Z,23.00
2018-07-20T22:06:26.808Z,22.96
2018-07-20T22:08:55.372Z,22.97
2018-07-20T22:11:23.903Z,23.03
2018-07-20T22:13:53.342Z,22.97
2018-07-20T22:16:22.054Z,22.91
2018-07-20T22:18:50.623Z,22.77
2018-07-20T22:21:19.175Z,22.87
2018-07-20T22:23:47.751Z,22.84
2018-07-20T22:26:16.288Z,22.79
2018-07-20T22:28:44.814Z,22.81
2018-07-20T22:31:13.407Z,22.58
2018-07-20T22:33:41.945Z,22.64
2018-07-20T22:36:10.515Z,22.69
2018-07-20T22:38:45.191Z,22.64
2018-07-20T22:41:13.736Z,22.61
2018-07-20T22:43:42.254Z,22.55
2018-07-20T22:46:11.135Z,22.39
2018-07-20T22:48:40.068Z,22.43
2018-07-20T22:51:09.574Z,22.54
2018-07-20T22:53:38.162Z,22.50
2018-07-20T22:56:06.734Z,22.46
2018-07-20T22:58:35.259Z,22.36
2018-07-20T23:01:04.772Z,22.32
2018-07-20T23:03:33.489Z,22.33
2018-07-20T23:06:02.044Z,22.29
2018-07-20T23:08:30.732Z,22.24
2018-07-20T23:10:59.377Z,22.19
2018-07-20T23:13:28.097Z,22.16
2018-07-20T23:15:58.302Z,22.23
2018-07-20T23:18:27.156Z,22.27
2018-07-20T23:20:56.754Z,22.30
2018-07-20T23:23:43.341Z,22.19
2018-07-20T23:26:11.928Z,22.41
2018-07-20T23:28:41.061Z,22.43
2018-07-20T23:31:09.731Z,22.39
2018-07-20T23:33:38.295Z,22.38
2018-07-20T23:36:07.036Z,22.32
2018-07-20T23:38:35.971Z,22.33
2018-07-20T23:41:04.620Z,22.32
2018-07-20T23:43:33.459Z,22.13
2018-07-20T23:46:02.064Z,22.02
2018-07-20T23:48:30.643Z,22.26
2018-07-20T23:50:59.340Z,22.07
2018-07-20T23:53:28.176Z,21.94
2018-07-20T23:55:56.739Z,22.07
2018-07-20T23:58:25.328Z,21.99
